Time;durP1;ratioP1;P1;durP2;ratioP2;P2;SDS_P1;SDS_P2;PMS_P1;PMS_P2;Temp;Humidity;BMP_temperature;BMP_pressure;BME280_temperature;BME280_humidity;BME280_pressure;Samples;Min_cycle;Max_cycle;Signal;HPM_P1;HPM_P2
2022/05/14 00:00:53;;;;;;;6.68;2.40;;;13.40;1.00;;;;;;7368605;19;20014;-59
2022/05/14 00:03:25;;;;;;;4.93;2.10;;;13.40;1.00;;;;;;7370920;19;20012;-59
2022/05/14 00:05:55;;;;;;;5.43;2.17;;;13.20;1.00;;;;;;7369598;19;20078;-59
2022/05/14 00:08:26;;;;;;;4.75;2.10;;;13.10;1.00;;;;;;7362977;19;20022;-59
2022/05/14 00:13:41;;;;;;;5.93;2.03;;;13.00;1.00;;;;;;7367087;19;20395;-59
2022/05/14 00:16:12;;;;;;;3.60;1.90;;;12.90;1.00;;;;;;7370373;19;20470;-60
2022/05/14 00:18:43;;;;;;;4.88;2.00;;;12.70;1.00;;;;;;7361639;19;20033;-60
2022/05/14 00:21:13;;;;;;;4.28;1.90;;;12.70;1.00;;;;;;7370200;19;20085;-60
2022/05/14 00:23:43;;;;;;;4.32;1.75;;;12.70;1.00;;;;;;7369125;19;20028;-59
2022/05/14 00:26:13;;;;;;;4.93;2.00;;;12.60;1.00;;;;;;7390653;19;20013;-59
2022/05/14 00:28:46;;;;;;;3.30;1.90;;;12.60;1.00;;;;;;7360338;19;20011;-60
2022/05/14 00:31:16;;;;;;;3.47;2.38;;;12.40;1.00;;;;;;7368166;19;20002;-58
2022/05/14 00:33:46;;;;;;;5.93;1.85;;;12.40;1.00;;;;;;7368540;19;20491;-59
2022/05/14 00:36:16;;;;;;;5.47;2.30;;;12.40;1.00;;;;;;7369316;19;20040;-58
2022/05/14 00:38:46;;;;;;;4.78;2.20;;;12.20;1.00;;;;;;7361074;19;20014;-60
2022/05/14 00:41:16;;;;;;;7.25;2.45;;;12.20;1.00;;;;;;7390315;19;20494;-60
2022/05/14 00:43:55;;;;;;;5.07;2.30;;;12.20;1.00;;;;;;7367988;19;20018;-58
2022/05/14 00:46:29;;;;;;;5.57;2.20;;;12.10;1.00;;;;;;7368740;19;20416;-59
2022/05/14 00:49:01;;;;;;;5.57;2.20;;;12.20;1.00;;;;;;7360090;19;20010;-59
2022/05/14 00:51:39;;;;;;;3.42;2.33;;;12.10;1.00;;;;;;7367576;19;20089;-58
2022/05/14 00:54:11;;;;;;;5.47;2.50;;;12.10;1.00;;;;;;7364703;19;20021;-61
2022/05/14 00:56:46;;;;;;;4.35;2.70;;;12.00;1.00;;;;;;7365842;19;20110;-59
2022/05/14 00:59:20;;;;;;;4.80;2.40;;;11.90;1.00;;;;;;7380862;19;20351;-60
2022/05/14 01:01:52;;;;;;;3.70;2.22;;;12.00;1.00;;;;;;7367740;19;20014;-61
2022/05/14 01:04:23;;;;;;;4.57;2.45;;;11.90;1.00;;;;;;7366687;19;20010;-59
2022/05/14 01:06:58;;;;;;;5.30;2.22;;;11.90;1.00;;;;;;7367281;19;20101;-59
2022/05/14 01:09:30;;;;;;;6.38;2.42;;;11.90;1.00;;;;;;7359738;19;20632;-58
2022/05/14 01:12:00;;;;;;;5.68;2.78;;;11.90;1.00;;;;;;7364964;19;20804;-58
2022/05/14 01:14:33;;;;;;;9.00;2.72;;;11.90;1.00;;;;;;7363688;19;20014;-59
2022/05/14 01:17:03;;;;;;;3.88;2.28;;;12.00;1.00;;;;;;7390045;19;20078;-59
2022/05/14 01:19:33;;;;;;;6.40;2.42;;;11.90;1.00;;;;;;7359418;19;20017;-58
2022/05/14 01:22:16;;;;;;;5.40;2.45;;;12.10;1.00;;;;;;7365974;19;20006;-58
2022/05/14 01:27:54;;;;;;;6.25;2.95;;;12.20;1.00;;;;;;7361648;19;20538;-59
2022/05/14 01:30:24;;;;;;;5.63;3.33;;;12.20;1.00;;;;;;7365082;19;20017;-59
2022/05/14 01:33:07;;;;;;;4.93;3.15;;;12.30;1.00;;;;;;7366851;19;20011;-58
2022/05/14 01:35:38;;;;;;;8.13;3.03;;;12.20;1.00;;;;;;7366227;19;20021;-58
2022/05/14 01:38:08;;;;;;;11.35;4.32;;;12.10;1.00;;;;;;7383274;19;20530;-59
2022/05/14 01:40:38;;;;;;;7.10;4.00;;;12.10;1.00;;;;;;7363009;19;20017;-58
2022/05/14 01:43:11;;;;;;;7.18;3.80;;;12.30;1.00;;;;;;7365517;19;20015;-58
2022/05/14 01:45:41;;;;;;;9.00;4.13;;;12.30;1.00;;;;;;7366300;19;20081;-59
2022/05/14 01:48:11;;;;;;;7.72;4.03;;;12.30;1.00;;;;;;7361038;19;20010;-59
2022/05/14 01:50:41;;;;;;;8.45;4.10;;;12.10;1.00;;;;;;7363636;19;20539;-58
2022/05/14 01:53:12;;;;;;;5.63;3.65;;;12.00;1.00;;;;;;7385487;19;20470;-58
2022/05/14 01:55:42;;;;;;;10.75;4.70;;;12.00;1.60;;;;;;7362866;19;20006;-59
2022/05/14 02:00:57;;;;;;;7.97;4.50;;;11.90;2.70;;;;;;7365961;19;20045;-59
2022/05/14 02:03:27;;;;;;;10.00;5.15;;;11.70;5.20;;;;;;7365548;19;20006;-58
2022/05/14 02:05:56;;;;;;;6.57;4.85;;;11.70;6.10;;;;;;7364376;19;20515;-59
2022/05/14 02:08:26;;;;;;;11.38;5.53;;;11.80;8.00;;;;;;7359377;19;20022;-58
2022/05/14 02:10:57;;;;;;;7.25;5.18;;;11.80;8.10;;;;;;7387020;19;20042;-59
2022/05/14 02:13:30;;;;;;;10.43;5.53;;;11.80;8.70;;;;;;7365022;19;20002;-59
2022/05/14 02:16:00;;;;;;;8.85;5.30;;;11.70;9.10;;;;;;7364896;19;20126;-59
2022/05/14 02:18:30;;;;;;;9.13;5.15;;;11.70;9.00;;;;;;7358156;19;20127;-59
2022/05/14 02:21:00;;;;;;;10.98;6.53;;;11.70;8.90;;;;;;7364075;19;20021;-59
2022/05/14 02:23:30;;;;;;;7.90;5.35;;;11.80;9.00;;;;;;7364297;19;20108;-59
2022/05/14 02:26:00;;;;;;;8.20;5.00;;;11.90;8.00;;;;;;7385285;19;20025;-59
2022/05/14 02:28:32;;;;;;;8.75;4.85;;;11.90;6.60;;;;;;7357677;19;20011;-59
2022/05/14 02:31:02;;;;;;;9.77;5.35;;;11.80;7.50;;;;;;7364452;19;20006;-60
2022/05/14 02:33:32;;;;;;;11.25;5.68;;;11.80;8.60;;;;;;7355644;19;20025;-59
2022/05/14 02:36:02;;;;;;;7.88;6.05;;;11.70;9.80;;;;;;7385193;19;20015;-59
2022/05/14 02:38:32;;;;;;;7.95;5.47;;;11.60;11.60;;;;;;7382189;19;20370;-59
2022/05/14 02:41:02;;;;;;;13.70;5.95;;;11.60;12.50;;;;;;7363012;19;20010;-61
2022/05/14 02:43:35;;;;;;;9.70;5.75;;;11.60;14.00;;;;;;7364702;19;20007;-58
2022/05/14 02:46:06;;;;;;;8.25;5.13;;;11.60;14.20;;;;;;7363606;19;20010;-59
2022/05/14 02:48:37;;;;;;;8.73;5.65;;;11.60;14.10;;;;;;7356039;19;20007;-58
2022/05/14 02:51:07;;;;;;;11.85;6.35;;;11.60;15.00;;;;;;7361537;19;20078;-59
2022/05/14 02:53:37;;;;;;;8.88;5.65;;;11.60;15.70;;;;;;7384107;19;20016;-59
2022/05/14 02:56:07;;;;;;;9.38;6.35;;;11.50;16.00;;;;;;7363881;19;20010;-59
2022/05/14 03:01:22;;;;;;;14.82;5.82;;;11.60;16.10;;;;;;7363600;19;20066;-59
2022/05/14 03:03:52;;;;;;;10.30;6.35;;;11.60;16.00;;;;;;7362628;19;20530;-60
2022/05/14 03:06:22;;;;;;;11.20;5.82;;;11.50;16.00;;;;;;7363469;19;20010;-59
2022/05/14 03:08:52;;;;;;;7.22;5.30;;;11.60;16.10;;;;;;7377507;19;20018;-61
2022/05/14 03:11:23;;;;;;;9.70;5.82;;;11.50;16.10;;;;;;7363808;19;20006;-59
2022/05/14 03:13:55;;;;;;;9.95;6.07;;;11.40;16.90;;;;;;7361192;19;20018;-59
2022/05/14 03:16:25;;;;;;;11.10;6.15;;;11.50;16.90;;;;;;7365732;19;20031;-58
2022/05/14 03:18:55;;;;;;;11.25;6.07;;;11.50;16.80;;;;;;7363163;19;20039;-60
2022/05/14 03:21:25;;;;;;;10.50;5.93;;;11.50;16.90;;;;;;7368862;19;20010;-58
2022/05/14 03:23:55;;;;;;;8.95;5.40;;;11.50;16.70;;;;;;7391919;19;20026;-58
2022/05/14 03:26:25;;;;;;;7.45;5.57;;;11.40;16.80;;;;;;7371829;19;20010;-59
2022/05/14 03:28:57;;;;;;;8.63;5.28;;;11.50;16.60;;;;;;7361291;19;20027;-58
2022/05/14 03:31:27;;;;;;;11.85;6.05;;;11.50;16.00;;;;;;7369627;19;20010;-58
2022/05/14 03:33:57;;;;;;;10.88;5.72;;;11.40;16.80;;;;;;7368581;19;20018;-58
2022/05/14 03:36:31;;;;;;;9.32;5.53;;;11.40;17.80;;;;;;7368898;19;20022;-58
2022/05/14 03:39:01;;;;;;;11.65;5.75;;;11.30;18.10;;;;;;7363074;19;20007;-60
2022/05/14 03:41:31;;;;;;;9.30;5.40;;;11.40;17.70;;;;;;7392486;19;20006;-59
2022/05/14 03:44:04;;;;;;;12.75;5.65;;;11.40;17.30;;;;;;7368174;19;20023;-59
2022/05/14 03:46:34;;;;;;;8.70;5.38;;;11.30;17.70;;;;;;7369617;19;20474;-58
2022/05/14 03:49:04;;;;;;;7.60;5.50;;;11.30;18.20;;;;;;7362884;19;20529;-59
2022/05/14 03:51:35;;;;;;;6.47;5.40;;;11.30;18.30;;;;;;7370419;19;20423;-59
2022/05/14 03:54:06;;;;;;;10.23;5.80;;;11.30;18.90;;;;;;7368493;19;20460;-59
2022/05/14 03:56:39;;;;;;;7.97;5.38;;;11.40;18.30;;;;;;7391950;19;20014;-59
2022/05/14 03:59:12;;;;;;;9.30;5.53;;;11.40;18.20;;;;;;7361069;19;20089;-59
2022/05/14 04:01:42;;;;;;;11.05;5.68;;;11.40;17.80;;;;;;7368945;19;20507;-59
2022/05/14 04:04:12;;;;;;;7.72;5.40;;;11.40;17.80;;;;;;7368018;19;20470;-59
2022/05/14 04:06:42;;;;;;;8.80;5.40;;;11.40;18.60;;;;;;7369924;19;20018;-60
2022/05/14 04:09:12;;;;;;;7.70;5.10;;;12.40;10.60;;;;;;7360510;19;20097;-59
2022/05/14 04:11:42;;;;;;;9.75;4.75;;;13.40;3.80;;;;;;7390111;19;20486;-59
2022/05/14 04:14:14;;;;;;;8.70;4.97;;;13.90;1.00;;;;;;7366981;19;20018;-59
2022/05/14 04:16:44;;;;;;;8.13;5.32;;;13.80;1.00;;;;;;7369065;19;20003;-59
2022/05/14 04:19:14;;;;;;;9.80;4.90;;;14.50;1.00;;;;;;7360942;19;20003;-59
2022/05/14 04:21:44;;;;;;;6.57;4.43;;;14.90;1.00;;;;;;7368381;19;20031;-60
2022/05/14 04:24:14;;;;;;;7.90;4.65;;;15.20;1.00;;;;;;7367927;19;20017;-59
2022/05/14 04:26:44;;;;;;;9.48;4.85;;;15.60;1.00;;;;;;7390979;19;20039;-59
2022/05/14 04:29:17;;;;;;;7.40;4.60;;;15.90;1.00;;;;;;7358249;19;20010;-59
2022/05/14 04:31:48;;;;;;;7.38;4.45;;;16.30;1.00;;;;;;7367497;19;20015;-59
2022/05/14 04:34:20;;;;;;;10.20;4.60;;;17.00;1.00;;;;;;7366603;19;20047;-59
2022/05/14 04:36:50;;;;;;;9.88;4.00;;;16.60;1.00;;;;;;7369368;19;20010;-58
2022/05/14 04:39:20;;;;;;;7.65;4.53;;;17.50;1.00;;;;;;7360891;19;20010;-59
2022/05/14 04:41:50;;;;;;;6.57;4.78;;;17.60;1.00;;;;;;7388209;19;20035;-59
2022/05/14 04:44:23;;;;;;;7.53;4.32;;;17.40;1.00;;;;;;7366538;19;20386;-59
2022/05/14 04:46:53;;;;;;;7.85;3.97;;;18.00;1.00;;;;;;7367421;19;20415;-59
2022/05/14 04:49:22;;;;;;;7.93;4.35;;;18.00;1.00;;;;;;7359723;19;20490;-59
2022/05/14 04:51:52;;;;;;;11.98;4.30;;;17.90;1.00;;;;;;7367851;19;20501;-59
2022/05/14 04:54:22;;;;;;;7.28;4.00;;;18.20;1.00;;;;;;7366471;19;20505;-59
2022/05/14 04:56:52;;;;;;;7.00;4.35;;;18.70;1.00;;;;;;7389052;19;20018;-60
2022/05/14 04:59:24;;;;;;;8.60;4.30;;;18.80;1.00;;;;;;7359432;19;20020;-60
2022/05/14 05:04:40;;;;;;;11.85;4.10;;;18.50;1.00;;;;;;7366050;19;20316;-59
2022/05/14 05:07:10;;;;;;;4.28;3.38;;;18.20;1.00;;;;;;7367346;19;20458;-59
2022/05/14 05:09:40;;;;;;;7.43;3.70;;;18.80;1.00;;;;;;7360865;19;20010;-59
2022/05/14 05:12:11;;;;;;;10.75;4.25;;;18.20;1.00;;;;;;7366562;19;20659;-59
2022/05/14 05:14:44;;;;;;;12.27;4.25;;;18.50;1.00;;;;;;7387219;19;20044;-59
2022/05/14 05:17:14;;;;;;;11.45;4.45;;;18.60;1.00;;;;;;7367454;19;20070;-60
2022/05/14 05:19:44;;;;;;;7.47;3.97;;;18.80;1.00;;;;;;7360957;19;20021;-58
2022/05/14 05:22:14;;;;;;;8.35;3.90;;;19.50;1.00;;;;;;7366910;19;20114;-58
2022/05/14 05:24:44;;;;;;;6.57;3.70;;;18.80;1.00;;;;;;7366131;19;20494;-59
2022/05/14 05:27:14;;;;;;;6.32;3.67;;;18.40;1.00;;;;;;7367015;19;20034;-59
2022/05/14 05:29:47;;;;;;;7.53;4.00;;;18.40;1.00;;;;;;7382613;19;20073;-60
2022/05/14 05:32:17;;;;;;;7.93;4.40;;;18.90;1.00;;;;;;7366633;19;20017;-60
2022/05/14 05:34:47;;;;;;;7.40;3.97;;;19.20;1.00;;;;;;7364679;19;20010;-60
2022/05/14 05:37:16;;;;;;;6.28;4.20;;;18.70;1.00;;;;;;7363936;19;20011;-60
2022/05/14 05:39:46;;;;;;;6.55;3.92;;;19.00;1.00;;;;;;7361002;19;20024;-59
2022/05/14 05:42:16;;;;;;;9.02;4.15;;;18.60;1.00;;;;;;7366449;19;20014;-59
2022/05/14 05:44:49;;;;;;;6.25;4.05;;;18.80;1.00;;;;;;7386055;19;20025;-59
2022/05/14 05:47:19;;;;;;;7.40;4.28;;;18.60;1.00;;;;;;7362926;19;20015;-60
2022/05/14 05:49:48;;;;;;;9.20;4.32;;;18.70;1.00;;;;;;7361283;19;20002;-59
2022/05/14 05:52:18;;;;;;;6.90;3.70;;;17.30;1.00;;;;;;7361961;19;20053;-58
2022/05/14 05:57:35;;;;;;;9.50;4.15;;;15.70;1.00;;;;;;7364416;19;20016;-60
2022/05/14 06:00:12;;;;;;;6.90;3.70;;;15.30;1.00;;;;;;7365478;19;20070;-59
2022/05/14 06:02:42;;;;;;;6.38;3.83;;;15.50;1.00;;;;;;7387009;19;20572;-59
2022/05/14 06:05:13;;;;;;;6.10;4.22;;;15.60;1.00;;;;;;7363349;19;20082;-60
2022/05/14 06:07:43;;;;;;;5.90;3.88;;;15.60;1.00;;;;;;7362764;19;20486;-59
2022/05/14 06:10:16;;;;;;;6.97;4.38;;;15.50;1.00;;;;;;7360740;19;20017;-59
2022/05/14 06:12:46;;;;;;;6.90;3.75;;;15.50;1.00;;;;;;7366089;19;20010;-59
2022/05/14 06:15:22;;;;;;;6.50;3.78;;;17.00;1.00;;;;;;7363814;19;20015;-59
2022/05/14 06:17:54;;;;;;;10.77;3.70;;;18.90;1.00;;;;;;7385419;19;20022;-59
2022/05/14 06:20:24;;;;;;;12.63;3.88;;;19.70;1.00;;;;;;7360377;19;20041;-59
2022/05/14 06:22:53;;;;;;;7.40;3.53;;;19.60;1.00;;;;;;7364542;19;20542;-59
2022/05/14 06:25:24;;;;;;;7.00;3.63;;;18.90;1.00;;;;;;7364098;19;20074;-60
2022/05/14 06:27:53;;;;;;;9.98;3.83;;;19.20;1.00;;;;;;7363754;19;20010;-60
2022/05/14 06:30:26;;;;;;;7.88;3.30;;;19.50;1.00;;;;;;7359959;19;20032;-59
2022/05/14 06:32:56;;;;;;;6.43;3.38;;;19.50;1.00;;;;;;7386121;19;20021;-60
2022/05/14 06:35:26;;;;;;;7.57;3.78;;;18.00;1.00;;;;;;7362702;19;20090;-59
2022/05/14 06:37:56;;;;;;;6.68;3.15;;;16.80;1.00;;;;;;7362140;19;20046;-60
2022/05/14 06:40:26;;;;;;;6.03;2.75;;;16.70;1.00;;;;;;7359727;19;20007;-59
2022/05/14 06:42:56;;;;;;;7.97;2.70;;;16.60;1.00;;;;;;7364401;19;20010;-60
2022/05/14 06:45:29;;;;;;;9.48;3.30;;;16.70;1.00;;;;;;7362586;19;20022;-60
2022/05/14 06:47:59;;;;;;;5.55;3.08;;;16.70;1.00;;;;;;7384105;19;20010;-59
2022/05/14 06:50:31;;;;;;;8.85;3.47;;;16.90;1.00;;;;;;7359839;19;20014;-59
2022/05/14 06:53:04;;;;;;;6.55;3.00;;;17.00;1.00;;;;;;7369761;19;20017;-59
2022/05/14 06:55:38;;;;;;;6.30;2.78;;;16.90;1.00;;;;;;7370417;19;20036;-59
2022/05/14 06:58:11;;;;;;;6.82;2.90;;;16.70;1.00;;;;;;7367880;19;20466;-60
2022/05/14 07:00:44;;;;;;;5.72;2.90;;;16.70;1.00;;;;;;7369700;19;20172;-60
2022/05/14 07:08:39;;;;;;;5.90;2.70;;;16.80;1.00;;;;;;7366484;19;20017;-60
2022/05/14 07:11:10;;;;;;;6.75;3.10;;;16.90;1.00;;;;;;7368407;19;20102;-59
2022/05/14 07:13:40;;;;;;;4.47;2.47;;;17.40;1.00;;;;;;7370785;19;20501;-59
2022/05/14 07:16:19;;;;;;;5.45;2.80;;;17.10;1.00;;;;;;7370489;19;20031;-60
2022/05/14 07:18:49;;;;;;;7.90;2.88;;;17.80;1.00;;;;;;7365669;19;20014;-60
2022/05/14 07:21:19;;;;;;;8.68;2.60;;;17.90;1.00;;;;;;7367720;19;20602;-60
2022/05/14 07:23:48;;;;;;;5.22;2.53;;;17.90;1.00;;;;;;7392513;19;20015;-60
2022/05/14 07:26:19;;;;;;;6.05;2.25;;;18.10;1.00;;;;;;7371001;19;20015;-60
2022/05/14 07:28:49;;;;;;;6.53;2.50;;;18.10;1.00;;;;;;7364855;19;20069;-60
2022/05/14 07:31:21;;;;;;;4.57;2.13;;;18.10;1.00;;;;;;7367149;19;20011;-59
2022/05/14 07:33:52;;;;;;;5.05;2.60;;;18.60;1.00;;;;;;7369946;19;20085;-59
2022/05/14 07:36:25;;;;;;;5.55;2.42;;;18.60;1.00;;;;;;7370348;19;20093;-59
2022/05/14 07:38:57;;;;;;;6.03;2.35;;;18.50;1.00;;;;;;7385631;19;20020;-60
2022/05/14 07:41:28;;;;;;;7.78;2.30;;;18.40;1.00;;;;;;7368980;19;20421;-59
2022/05/14 07:44:00;;;;;;;6.95;2.60;;;18.30;1.00;;;;;;7369152;19;20018;-59
2022/05/14 07:46:35;;;;;;;4.47;2.83;;;18.60;1.00;;;;;;7370656;19;20074;-59
2022/05/14 07:49:08;;;;;;;8.98;2.20;;;18.50;1.00;;;;;;7361874;19;20018;-60
2022/05/14 07:51:37;;;;;;;3.97;2.00;;;18.50;1.00;;;;;;7369669;19;20006;-60
2022/05/14 07:54:08;;;;;;;3.38;2.15;;;18.40;1.00;;;;;;7369087;19;20022;-60
2022/05/14 07:56:39;;;;;;;6.78;2.42;;;18.00;1.00;;;;;;7390711;19;20014;-60
2022/05/14 07:59:09;;;;;;;9.63;2.53;;;18.10;1.00;;;;;;7361949;19;20520;-59
2022/05/14 08:01:42;;;;;;;2.60;2.08;;;18.40;1.00;;;;;;7367984;19;20093;-60
2022/05/14 08:04:12;;;;;;;5.47;2.20;;;17.80;1.00;;;;;;7367225;19;20026;-61
2022/05/14 08:06:42;;;;;;;3.65;2.22;;;18.00;1.00;;;;;;7369985;19;20025;-60
2022/05/14 08:09:12;;;;;;;2.80;1.90;;;18.20;1.00;;;;;;7362050;19;20021;-60
2022/05/14 08:11:42;;;;;;;4.03;1.80;;;18.00;1.00;;;;;;7390344;19;20006;-60
2022/05/14 08:14:12;;;;;;;6.15;1.92;;;18.10;1.00;;;;;;7366873;19;20032;-60
2022/05/14 08:16:44;;;;;;;6.85;2.33;;;18.80;1.00;;;;;;7367953;19;20013;-59
2022/05/14 08:19:14;;;;;;;4.40;2.13;;;18.70;1.00;;;;;;7361985;19;20015;-60
2022/05/14 08:24:34;;;;;;;4.05;1.90;;;18.70;1.00;;;;;;7368576;19;20078;-60
2022/05/14 08:27:06;;;;;;;6.38;1.90;;;19.10;1.00;;;;;;7365955;19;20050;-59
2022/05/14 08:29:42;;;;;;;3.17;1.67;;;18.60;1.00;;;;;;7383302;19;20084;-59
2022/05/14 08:32:18;;;;;;;3.17;1.40;;;18.70;1.00;;;;;;7367316;19;20033;-59
2022/05/14 08:34:48;;;;;;;3.85;1.40;;;19.70;1.00;;;;;;7366994;19;20034;-60
2022/05/14 08:37:18;;;;;;;3.25;1.90;;;19.80;1.00;;;;;;7367040;19;20031;-60
2022/05/14 08:39:48;;;;;;;4.00;1.48;;;19.70;1.00;;;;;;7361251;19;20017;-59
2022/05/14 08:42:18;;;;;;;6.40;1.92;;;19.90;1.00;;;;;;7367520;19;20478;-60
2022/05/14 08:44:50;;;;;;;4.70;1.70;;;19.90;1.00;;;;;;7388719;19;20467;-59
2022/05/14 08:47:39;;;;;;;5.50;1.60;;;19.30;1.00;;;;;;7369111;19;20073;-61
2022/05/14 08:50:11;;;;;;;8.13;1.65;;;19.20;1.00;;;;;;7360860;19;20114;-60
2022/05/14 08:52:42;;;;;;;2.92;1.30;;;19.50;1.00;;;;;;7367098;19;20083;-60
2022/05/14 08:55:18;;;;;;;3.47;1.40;;;20.00;1.00;;;;;;7367051;19;20027;-60
2022/05/14 08:57:54;;;;;;;1.88;1.23;;;19.80;1.00;;;;;;7364253;19;20352;-60
2022/05/14 09:00:24;;;;;;;4.45;1.20;;;19.60;1.00;;;;;;7362459;19;20105;-59
2022/05/14 09:02:58;;;;;;;7.43;2.10;;;19.30;1.00;;;;;;7388644;19;20019;-59
2022/05/14 09:05:32;;;;;;;5.72;1.75;;;19.60;1.00;;;;;;7365034;19;20344;-59
2022/05/14 09:08:02;;;;;;;6.22;2.35;;;19.70;1.00;;;;;;7364950;19;20014;-61
2022/05/14 09:10:36;;;;;;;3.83;2.30;;;19.90;1.00;;;;;;7363065;19;20374;-59
2022/05/14 09:13:15;;;;;;;3.92;1.75;;;19.80;1.00;;;;;;7365832;19;20013;-61
2022/05/14 09:15:48;;;;;;;2.72;1.35;;;20.00;1.00;;;;;;7363006;19;20498;-60
2022/05/14 09:18:27;;;;;;;3.67;1.42;;;19.50;1.00;;;;;;7360731;19;20014;-59
2022/05/14 09:21:01;;;;;;;2.78;1.17;;;19.40;1.00;;;;;;7386793;19;20046;-59
2022/05/14 09:23:35;;;;;;;5.93;1.52;;;20.10;1.00;;;;;;7362996;19;20014;-60
2022/05/14 09:26:12;;;;;;;2.00;1.30;;;20.10;1.00;;;;;;7365390;19;20090;-60
2022/05/14 09:28:48;;;;;;;3.67;1.10;;;19.60;1.00;;;;;;7360774;19;20019;-59
2022/05/14 09:31:27;;;;;;;2.10;1.08;;;20.10;1.00;;;;;;7364575;19;20489;-60
2022/05/14 09:34:15;;;;;;;3.08;1.10;;;20.60;1.00;;;;;;7364661;19;20014;-59
2022/05/14 09:36:48;;;;;;;4.05;1.35;;;19.90;1.00;;;;;;7366762;19;20006;-59
2022/05/14 09:39:20;;;;;;;6.03;1.30;;;20.00;1.00;;;;;;7358163;19;20039;-60
2022/05/14 09:41:52;;;;;;;1.90;1.00;;;20.20;1.00;;;;;;7387509;19;20016;-60
2022/05/14 09:44:24;;;;;;;1.85;0.98;;;20.70;1.00;;;;;;7364972;19;20011;-60
2022/05/14 09:47:06;;;;;;;4.93;1.10;;;20.60;1.00;;;;;;7364934;19;20015;-60
2022/05/14 09:49:42;;;;;;;2.65;1.00;;;21.10;1.00;;;;;;7358207;19;20010;-60
2022/05/14 09:52:14;;;;;;;2.08;0.95;;;21.50;1.00;;;;;;7365477;19;20022;-60
2022/05/14 09:54:45;;;;;;;2.65;1.30;;;21.40;1.00;;;;;;7364996;19;20023;-59
2022/05/14 09:57:40;;;;;;;4.65;1.30;;;21.40;1.00;;;;;;7365021;19;20023;-60
2022/05/14 10:00:14;;;;;;;2.63;1.10;;;21.20;1.00;;;;;;7360986;19;20697;-59
2022/05/14 10:02:59;;;;;;;5.03;1.30;;;21.20;1.00;;;;;;7386925;19;20029;-59
2022/05/14 10:05:50;;;;;;;4.20;0.88;;;20.50;1.00;;;;;;7363657;19;20021;-60
2022/05/14 10:08:30;;;;;;;1.88;1.00;;;20.50;1.00;;;;;;7360239;19;20018;-60
2022/05/14 10:11:10;;;;;;;2.85;1.05;;;21.20;1.00;;;;;;7361798;19;20010;-59
2022/05/14 10:13:48;;;;;;;5.40;1.30;;;20.70;1.00;;;;;;7363327;19;20024;-59
2022/05/14 10:16:25;;;;;;;2.05;1.13;;;21.00;1.00;;;;;;7365169;19;20006;-60
2022/05/14 10:19:16;;;;;;;4.85;0.80;;;21.60;1.00;;;;;;7358512;19;20014;-59
2022/05/14 10:21:58;;;;;;;2.25;1.02;;;21.40;1.00;;;;;;7365372;19;20018;-60
2022/05/14 10:27:43;;;;;;;4.45;0.80;;;21.10;1.00;;;;;;7366379;19;20018;-61
2022/05/14 10:30:17;;;;;;;2.28;1.17;;;21.60;1.00;;;;;;7363583;19;20021;-62
2022/05/14 10:32:48;;;;;;;;;;;21.30;1.00;;;;;;7391585;19;20078;-60
2022/05/14 10:35:24;;;;;;;3.65;0.75;;;21.00;1.00;;;;;;7367355;19;19922;-60
2022/05/14 10:38:01;;;;;;;2.45;0.90;;;21.20;1.00;;;;;;7366927;19;20078;-59
2022/05/14 10:40:38;;;;;;;2.28;0.82;;;21.10;1.00;;;;;;7366086;19;20555;-60
2022/05/14 10:43:33;;;;;;;5.95;0.90;;;21.20;1.00;;;;;;7370750;19;20011;-59
2022/05/14 10:46:09;;;;;;;1.83;0.80;;;21.50;1.00;;;;;;7369598;19;20566;-62
2022/05/14 10:48:45;;;;;;;3.58;1.35;;;21.10;1.00;;;;;;7365709;19;20018;-60
2022/05/14 10:51:24;;;;;;;2.35;1.00;;;20.90;1.00;;;;;;7367301;19;20023;-62
2022/05/14 10:53:58;;;;;;;3.88;1.08;;;21.30;1.00;;;;;;7389979;19;20890;-61
2022/05/14 10:56:32;;;;;;;1.85;0.88;;;21.70;1.00;;;;;;7368872;19;20010;-61
2022/05/14 10:59:07;;;;;;;1.70;0.65;;;22.20;1.00;;;;;;7362677;19;20006;-60
2022/05/14 11:01:41;;;;;;;2.65;1.20;;;21.40;1.00;;;;;;7366926;19;20017;-59
2022/05/14 11:04:21;;;;;;;2.45;0.80;;;21.30;1.00;;;;;;7366574;19;20010;-60
2022/05/14 11:07:01;;;;;;;2.83;0.95;;;21.70;1.00;;;;;;7368326;19;20025;-61
2022/05/14 11:09:47;;;;;;;4.82;1.20;;;21.80;1.00;;;;;;7360282;19;20026;-60
2022/05/14 11:12:34;;;;;;;3.58;1.08;;;21.40;1.00;;;;;;7367960;19;20017;-64
2022/05/14 11:15:19;;;;;;;3.33;0.90;;;21.60;1.00;;;;;;7365439;19;20078;-59
2022/05/14 11:17:50;;;;;;;1.85;1.00;;;21.80;1.00;;;;;;7388307;19;20015;-61
2022/05/14 11:20:21;;;;;;;3.13;1.20;;;22.40;1.00;;;;;;7363542;19;20014;-60
2022/05/14 11:22:53;;;;;;;4.32;1.50;;;22.30;1.00;;;;;;7367598;19;20026;-60
2022/05/14 11:25:29;;;;;;;4.18;1.35;;;22.50;1.00;;;;;;7367801;19;20475;-59
2022/05/14 11:28:04;;;;;;;2.40;0.88;;;22.20;1.00;;;;;;7366501;19;20575;-60
2022/05/14 11:30:43;;;;;;;2.38;0.90;;;21.80;1.00;;;;;;7365284;19;20012;-60
2022/05/14 11:33:22;;;;;;;2.47;1.10;;;22.40;1.00;;;;;;7368294;19;20027;-60
2022/05/14 11:35:54;;;;;;;4.47;0.90;;;22.70;1.00;;;;;;7390281;19;20331;-60
2022/05/14 11:38:34;;;;;;;1.77;0.88;;;22.30;1.00;;;;;;7363797;19;20132;-60
2022/05/14 11:41:09;;;;;;;2.10;1.00;;;21.90;1.00;;;;;;7366043;19;20018;-59
2022/05/14 11:43:39;;;;;;;;;;;22.20;1.00;;;;;;7368535;19;20014;-59
2022/05/14 11:46:28;;;;;;;2.05;1.10;;;22.60;1.00;;;;;;7370757;19;19907;-60
2022/05/14 11:49:04;;;;;;;4.43;0.98;;;22.50;1.00;;;;;;7365550;19;20007;-59
2022/05/14 11:51:40;;;;;;;2.90;1.10;;;22.50;1.00;;;;;;7366776;19;20073;-58
2022/05/14 11:54:14;;;;;;;2.90;1.10;;;22.10;1.00;;;;;;7366890;19;20518;-59
2022/05/14 11:56:53;;;;;;;2.42;1.00;;;22.10;1.00;;;;;;7390665;19;20098;-60
2022/05/14 11:59:29;;;;;;;2.38;1.00;;;22.50;1.00;;;;;;7361505;19;20011;-59
2022/05/14 12:02:02;;;;;;;2.60;1.13;;;23.00;1.00;;;;;;7368563;19;20593;-59
2022/05/14 12:04:43;;;;;;;4.82;1.02;;;22.80;1.00;;;;;;7366359;19;20006;-59
2022/05/14 12:07:35;;;;;;;2.88;0.70;;;23.20;1.00;;;;;;7369891;19;20011;-60
2022/05/14 12:10:16;;;;;;;2.28;1.00;;;22.70;1.00;;;;;;7363950;19;20065;-59
2022/05/14 12:12:56;;;;;;;4.43;0.98;;;22.40;1.00;;;;;;7366416;19;20035;-60
2022/05/14 12:15:29;;;;;;;4.15;1.02;;;22.20;1.00;;;;;;7366179;19;20017;-59
2022/05/14 12:18:01;;;;;;;1.50;0.93;;;22.60;1.00;;;;;;7384445;19;20074;-63
2022/05/14 12:20:39;;;;;;;3.35;1.13;;;22.60;1.00;;;;;;7387123;19;20440;-59
2022/05/14 12:23:17;;;;;;;3.35;1.10;;;22.50;1.00;;;;;;7365878;19;20010;-59
2022/05/14 12:25:50;;;;;;;1.88;1.02;;;22.80;1.00;;;;;;7365143;19;20359;-60
2022/05/14 12:28:28;;;;;;;4.27;0.90;;;22.90;1.00;;;;;;7363168;19;20101;-59
2022/05/14 12:33:42;;;;;;;4.35;1.02;;;22.30;1.00;;;;;;7366551;19;20010;-58
2022/05/14 12:36:13;;;;;;;3.05;1.05;;;22.90;1.00;;;;;;7367487;19;20019;-59
2022/05/14 12:38:44;;;;;;;2.50;1.10;;;22.70;1.00;;;;;;7384377;19;20094;-59
2022/05/14 12:41:27;;;;;;;2.25;1.13;;;22.80;1.00;;;;;;7364071;19;20695;-59
2022/05/14 12:44:00;;;;;;;2.22;1.00;;;23.20;1.00;;;;;;7364628;19;20015;-60
2022/05/14 12:46:30;;;;;;;1.48;0.90;;;23.20;1.00;;;;;;7366102;19;20098;-60
2022/05/14 12:49:00;;;;;;;4.18;0.85;;;22.90;1.00;;;;;;7359458;19;20038;-59
2022/05/14 12:51:30;;;;;;;1.77;0.93;;;23.00;1.00;;;;;;7362821;19;20503;-59
2022/05/14 12:54:00;;;;;;;2.33;0.80;;;23.20;1.00;;;;;;7371838;19;20014;-59
2022/05/14 12:56:36;;;;;;;1.85;0.90;;;23.40;1.00;;;;;;7387990;19;20153;-59
2022/05/14 12:59:09;;;;;;;2.05;1.00;;;23.30;1.00;;;;;;7361220;19;20086;-59
2022/05/14 13:01:39;;;;;;;2.08;0.93;;;22.60;1.00;;;;;;7362781;19;20387;-60
2022/05/14 13:04:13;;;;;;;2.38;1.10;;;23.50;1.00;;;;;;7364323;19;20011;-59
2022/05/14 13:06:46;;;;;;;2.65;1.08;;;23.60;1.00;;;;;;7365472;19;20041;-60
2022/05/14 13:09:25;;;;;;;4.55;1.20;;;23.90;1.00;;;;;;7360669;19;20019;-60
2022/05/14 13:11:57;;;;;;;2.08;0.90;;;23.90;1.00;;;;;;7379444;19;20011;-60
2022/05/14 13:14:34;;;;;;;2.75;0.98;;;24.10;1.00;;;;;;7356800;19;20010;-60
2022/05/14 13:17:06;;;;;;;4.60;1.05;;;24.20;1.00;;;;;;7356617;19;20018;-60
2022/05/14 13:19:42;;;;;;;2.30;0.90;;;23.60;1.00;;;;;;7353563;19;20035;-59
2022/05/14 13:22:14;;;;;;;3.15;0.88;;;23.30;1.00;;;;;;7359308;19;20021;-59
2022/05/14 13:24:54;;;;;;;2.22;0.90;;;23.30;1.00;;;;;;7360875;19;20015;-59
2022/05/14 13:27:31;;;;;;;1.83;0.80;;;23.20;1.00;;;;;;7364405;19;20094;-58
2022/05/14 13:30:12;;;;;;;4.68;0.88;;;23.30;1.00;;;;;;7360247;19;20015;-61
2022/05/14 13:32:42;;;;;;;2.67;0.85;;;23.40;1.00;;;;;;7385211;19;20085;-59
2022/05/14 13:38:05;;;;;;;3.05;0.90;;;23.30;1.00;;;;;;7362290;19;20030;-60
2022/05/14 13:40:40;;;;;;;4.60;0.85;;;23.40;1.00;;;;;;7361905;19;20074;-61
2022/05/14 13:43:14;;;;;;;1.38;0.90;;;23.20;1.00;;;;;;7364154;19;20042;-59
2022/05/14 13:45:54;;;;;;;2.53;1.00;;;23.60;1.00;;;;;;7363642;19;20086;-59
2022/05/14 13:48:30;;;;;;;2.83;1.05;;;23.40;1.00;;;;;;7360573;19;20147;-59
2022/05/14 13:51:09;;;;;;;2.65;0.70;;;23.60;1.00;;;;;;7362380;19;20022;-60
2022/05/14 13:53:41;;;;;;;4.17;0.87;;;23.70;1.00;;;;;;7384458;19;20085;-59
2022/05/14 13:56:13;;;;;;;1.88;0.70;;;23.50;1.00;;;;;;7364682;19;20017;-59
2022/05/14 13:58:59;;;;;;;1.63;0.80;;;23.50;1.00;;;;;;7359734;19;20106;-58